sensor_id;sensor_type;location;lat;lon;timestamp;P1;durP1;ratioP1;P2;durP2;ratioP2
60336;SDS011;46978;50.288;28.624;2023-08-12T00:00:00;8.37;;;5.77;;
60336;SDS011;46978;50.288;28.624;2023-08-12T00:01:04;8.51;;;6.01;;
60336;SDS011;46978;50.288;28.624;2023-08-12T00:02:07;7.56;;;5.64;;
60336;SDS011;46978;50.288;28.624;2023-08-12T00:03:12;9.30;;;6.01;;
60336;SDS011;46978;50.288;28.624;2023-08-12T00:04:27;7.69;;;5.78;;
60336;SDS011;46978;50.288;28.624;2023-08-12T00:05:29;8.42;;;5.52;;
60336;SDS011;46978;50.288;28.624;2023-08-12T00:06:39;7.88;;;5.81;;
60336;SDS011;46978;50.288;28.624;2023-08-12T00:07:45;6.51;;;5.07;;
60336;SDS011;46978;50.288;28.624;2023-08-12T00:09:03;7.99;;;5.66;;
60336;SDS011;46978;50.288;28.624;2023-08-12T00:10:08;9.22;;;5.78;;
60336;SDS011;46978;50.288;28.624;2023-08-12T00:11:12;7.32;;;5.65;;
60336;SDS011;46978;50.288;28.624;2023-08-12T00:12:19;9.31;;;5.62;;
60336;SDS011;46978;50.288;28.624;2023-08-12T00:13:25;7.45;;;5.78;;
60336;SDS011;46978;50.288;28.624;2023-08-12T00:14:30;7.75;;;5.63;;
60336;SDS011;46978;50.288;28.624;2023-08-12T00:15:37;8.68;;;6.13;;
60336;SDS011;46978;50.288;28.624;2023-08-12T00:16:45;7.80;;;5.63;;
60336;SDS011;46978;50.288;28.624;2023-08-12T00:17:54;8.18;;;5.74;;
60336;SDS011;46978;50.288;28.624;2023-08-12T00:19:01;7.94;;;5.71;;
60336;SDS011;46978;50.288;28.624;2023-08-12T00:20:07;7.91;;;5.46;;
60336;SDS011;46978;50.288;28.624;2023-08-12T00:21:11;7.62;;;6.05;;
60336;SDS011;46978;50.288;28.624;2023-08-12T00:22:13;6.66;;;5.01;;
60336;SDS011;46978;50.288;28.624;2023-08-12T00:23:21;7.96;;;6.17;;
60336;SDS011;46978;50.288;28.624;2023-08-12T00:24:23;8.21;;;6.03;;
60336;SDS011;46978;50.288;28.624;2023-08-12T00:25:27;7.97;;;5.79;;
60336;SDS011;46978;50.288;28.624;2023-08-12T00:26:36;7.78;;;5.95;;
60336;SDS011;46978;50.288;28.624;2023-08-12T00:27:44;8.17;;;5.61;;
60336;SDS011;46978;50.288;28.624;2023-08-12T00:28:50;7.05;;;5.51;;
60336;SDS011;46978;50.288;28.624;2023-08-12T00:29:54;11.44;;;6.11;;
60336;SDS011;46978;50.288;28.624;2023-08-12T00:30:59;9.38;;;6.09;;
60336;SDS011;46978;50.288;28.624;2023-08-12T00:32:01;8.31;;;6.03;;
60336;SDS011;46978;50.288;28.624;2023-08-12T00:33:08;8.44;;;6.04;;
60336;SDS011;46978;50.288;28.624;2023-08-12T00:34:10;7.47;;;5.87;;
60336;SDS011;46978;50.288;28.624;2023-08-12T00:35:14;7.94;;;5.94;;
60336;SDS011;46978;50.288;28.624;2023-08-12T00:36:16;7.39;;;5.53;;
60336;SDS011;46978;50.288;28.624;2023-08-12T00:37:21;8.88;;;5.91;;
60336;SDS011;46978;50.288;28.624;2023-08-12T00:38:28;7.94;;;5.87;;
60336;SDS011;46978;50.288;28.624;2023-08-12T00:39:36;8.29;;;5.86;;
60336;SDS011;46978;50.288;28.624;2023-08-12T00:40:40;8.90;;;5.95;;
60336;SDS011;46978;50.288;28.624;2023-08-12T00:41:42;8.23;;;5.61;;
60336;SDS011;46978;50.288;28.624;2023-08-12T00:42:50;6.94;;;5.89;;
60336;SDS011;46978;50.288;28.624;2023-08-12T00:43:59;8.49;;;5.63;;
60336;SDS011;46978;50.288;28.624;2023-08-12T00:45:09;8.26;;;5.66;;
60336;SDS011;46978;50.288;28.624;2023-08-12T00:46:17;8.43;;;5.84;;
60336;SDS011;46978;50.288;28.624;2023-08-12T00:47:24;7.83;;;5.87;;
60336;SDS011;46978;50.288;28.624;2023-08-12T00:48:28;8.11;;;6.02;;
60336;SDS011;46978;50.288;28.624;2023-08-12T00:49:34;7.79;;;6.54;;
60336;SDS011;46978;50.288;28.624;2023-08-12T00:50:37;7.45;;;6.19;;
60336;SDS011;46978;50.288;28.624;2023-08-12T00:51:41;9.27;;;6.30;;
60336;SDS011;46978;50.288;28.624;2023-08-12T00:52:47;8.04;;;5.45;;
60336;SDS011;46978;50.288;28.624;2023-08-12T00:53:55;7.42;;;5.27;;
60336;SDS011;46978;50.288;28.624;2023-08-12T00:54:59;7.69;;;6.12;;
60336;SDS011;46978;50.288;28.624;2023-08-12T00:56:04;7.78;;;5.86;;
60336;SDS011;46978;50.288;28.624;2023-08-12T00:57:06;7.97;;;6.02;;
60336;SDS011;46978;50.288;28.624;2023-08-12T00:58:09;7.69;;;5.87;;
60336;SDS011;46978;50.288;28.624;2023-08-12T00:59:17;7.75;;;6.06;;
60336;SDS011;46978;50.288;28.624;2023-08-12T01:00:21;7.07;;;5.86;;
60336;SDS011;46978;50.288;28.624;2023-08-12T01:01:24;8.61;;;6.12;;
60336;SDS011;46978;50.288;28.624;2023-08-12T01:02:29;7.55;;;5.64;;
60336;SDS011;46978;50.288;28.624;2023-08-12T01:03:36;7.46;;;5.99;;
60336;SDS011;46978;50.288;28.624;2023-08-12T01:04:39;9.03;;;6.11;;
60336;SDS011;46978;50.288;28.624;2023-08-12T01:05:49;7.74;;;5.86;;
60336;SDS011;46978;50.288;28.624;2023-08-12T01:06:55;8.23;;;6.16;;
60336;SDS011;46978;50.288;28.624;2023-08-12T01:07:57;8.11;;;5.99;;
60336;SDS011;46978;50.288;28.624;2023-08-12T01:09:01;7.66;;;5.69;;
60336;SDS011;46978;50.288;28.624;2023-08-12T01:10:04;9.40;;;5.86;;
60336;SDS011;46978;50.288;28.624;2023-08-12T01:12:40;8.94;;;5.41;;
60336;SDS011;46978;50.288;28.624;2023-08-12T01:13:46;7.76;;;5.85;;
60336;SDS011;46978;50.288;28.624;2023-08-12T01:15:05;8.43;;;5.72;;
60336;SDS011;46978;50.288;28.624;2023-08-12T01:17:22;9.01;;;5.86;;
60336;SDS011;46978;50.288;28.624;2023-08-12T01:18:29;8.48;;;5.82;;
60336;SDS011;46978;50.288;28.624;2023-08-12T01:19:34;7.02;;;5.88;;
60336;SDS011;46978;50.288;28.624;2023-08-12T01:20:46;9.48;;;6.34;;
60336;SDS011;46978;50.288;28.624;2023-08-12T01:21:50;8.66;;;5.93;;
60336;SDS011;46978;50.288;28.624;2023-08-12T01:23:13;7.34;;;6.16;;
60336;SDS011;46978;50.288;28.624;2023-08-12T01:24:17;7.31;;;5.35;;
60336;SDS011;46978;50.288;28.624;2023-08-12T01:25:25;8.19;;;6.04;;
60336;SDS011;46978;50.288;28.624;2023-08-12T01:26:29;7.87;;;5.81;;
60336;SDS011;46978;50.288;28.624;2023-08-12T01:27:42;9.11;;;6.28;;
60336;SDS011;46978;50.288;28.624;2023-08-12T01:28:44;7.62;;;5.57;;
60336;SDS011;46978;50.288;28.624;2023-08-12T01:29:51;8.71;;;6.05;;
60336;SDS011;46978;50.288;28.624;2023-08-12T01:31:09;8.69;;;6.41;;
60336;SDS011;46978;50.288;28.624;2023-08-12T01:33:42;7.37;;;5.49;;
60336;SDS011;46978;50.288;28.624;2023-08-12T01:35:14;8.90;;;5.61;;
60336;SDS011;46978;50.288;28.624;2023-08-12T01:37:28;9.94;;;6.27;;
60336;SDS011;46978;50.288;28.624;2023-08-12T01:38:32;8.72;;;5.75;;
60336;SDS011;46978;50.288;28.624;2023-08-12T01:39:40;8.57;;;5.93;;
60336;SDS011;46978;50.288;28.624;2023-08-12T01:40:44;9.13;;;6.27;;
60336;SDS011;46978;50.288;28.624;2023-08-12T01:41:51;8.22;;;5.59;;
60336;SDS011;46978;50.288;28.624;2023-08-12T01:42:54;7.37;;;5.91;;
60336;SDS011;46978;50.288;28.624;2023-08-12T01:44:02;7.59;;;5.49;;
60336;SDS011;46978;50.288;28.624;2023-08-12T01:45:05;9.44;;;6.29;;
60336;SDS011;46978;50.288;28.624;2023-08-12T01:46:12;8.16;;;5.78;;
60336;SDS011;46978;50.288;28.624;2023-08-12T01:47:17;8.32;;;6.06;;
60336;SDS011;46978;50.288;28.624;2023-08-12T01:48:23;8.07;;;5.77;;
60336;SDS011;46978;50.288;28.624;2023-08-12T01:49:29;7.72;;;5.64;;
60336;SDS011;46978;50.288;28.624;2023-08-12T01:50:32;9.25;;;6.25;;
60336;SDS011;46978;50.288;28.624;2023-08-12T01:51:38;10.09;;;6.16;;
60336;SDS011;46978;50.288;28.624;2023-08-12T01:52:44;9.46;;;5.95;;
60336;SDS011;46978;50.288;28.624;2023-08-12T01:53:46;10.29;;;6.43;;
60336;SDS011;46978;50.288;28.624;2023-08-12T01:54:50;7.65;;;6.07;;
60336;SDS011;46978;50.288;28.624;2023-08-12T01:55:55;9.08;;;6.16;;
60336;SDS011;46978;50.288;28.624;2023-08-12T01:57:03;8.19;;;5.92;;
60336;SDS011;46978;50.288;28.624;2023-08-12T01:58:15;8.35;;;6.22;;
60336;SDS011;46978;50.288;28.624;2023-08-12T01:59:38;6.68;;;5.30;;
60336;SDS011;46978;50.288;28.624;2023-08-12T02:00:49;7.88;;;6.03;;
60336;SDS011;46978;50.288;28.624;2023-08-12T02:01:54;7.78;;;6.04;;
60336;SDS011;46978;50.288;28.624;2023-08-12T02:03:09;8.71;;;5.97;;
60336;SDS011;46978;50.288;28.624;2023-08-12T02:04:21;8.38;;;5.86;;
60336;SDS011;46978;50.288;28.624;2023-08-12T02:05:27;8.51;;;5.63;;
60336;SDS011;46978;50.288;28.624;2023-08-12T02:06:33;8.68;;;5.97;;
60336;SDS011;46978;50.288;28.624;2023-08-12T02:07:38;7.81;;;5.71;;
60336;SDS011;46978;50.288;28.624;2023-08-12T02:08:40;9.05;;;5.94;;
60336;SDS011;46978;50.288;28.624;2023-08-12T02:09:42;7.78;;;5.80;;
60336;SDS011;46978;50.288;28.624;2023-08-12T02:10:47;7.69;;;6.06;;
60336;SDS011;46978;50.288;28.624;2023-08-12T02:12:00;7.77;;;6.03;;
60336;SDS011;46978;50.288;28.624;2023-08-12T02:13:02;8.69;;;5.32;;
60336;SDS011;46978;50.288;28.624;2023-08-12T02:14:07;7.33;;;5.64;;
60336;SDS011;46978;50.288;28.624;2023-08-12T02:15:16;7.33;;;5.94;;
60336;SDS011;46978;50.288;28.624;2023-08-12T02:17:29;8.84;;;6.14;;
60336;SDS011;46978;50.288;28.624;2023-08-12T02:18:38;8.30;;;5.85;;
60336;SDS011;46978;50.288;28.624;2023-08-12T02:19:47;7.77;;;6.07;;
60336;SDS011;46978;50.288;28.624;2023-08-12T02:20:52;7.82;;;6.01;;
60336;SDS011;46978;50.288;28.624;2023-08-12T02:21:58;7.69;;;6.06;;
60336;SDS011;46978;50.288;28.624;2023-08-12T02:23:01;8.49;;;6.02;;
60336;SDS011;46978;50.288;28.624;2023-08-12T02:24:08;8.41;;;5.93;;
60336;SDS011;46978;50.288;28.624;2023-08-12T02:25:12;9.27;;;5.82;;
60336;SDS011;46978;50.288;28.624;2023-08-12T02:26:20;8.21;;;6.04;;
60336;SDS011;46978;50.288;28.624;2023-08-12T02:27:26;8.04;;;5.89;;
60336;SDS011;46978;50.288;28.624;2023-08-12T02:28:34;8.97;;;5.89;;
60336;SDS011;46978;50.288;28.624;2023-08-12T02:30:50;8.85;;;5.66;;
60336;SDS011;46978;50.288;28.624;2023-08-12T02:31:55;8.06;;;5.66;;
60336;SDS011;46978;50.288;28.624;2023-08-12T02:32:57;7.78;;;6.03;;
60336;SDS011;46978;50.288;28.624;2023-08-12T02:34:01;6.89;;;5.56;;
60336;SDS011;46978;50.288;28.624;2023-08-12T02:35:06;7.56;;;5.81;;
60336;SDS011;46978;50.288;28.624;2023-08-12T02:36:08;7.93;;;5.77;;
60336;SDS011;46978;50.288;28.624;2023-08-12T02:37:14;7.60;;;5.82;;
60336;SDS011;46978;50.288;28.624;2023-08-12T02:38:21;7.51;;;5.77;;
60336;SDS011;46978;50.288;28.624;2023-08-12T02:39:34;7.58;;;5.90;;
60336;SDS011;46978;50.288;28.624;2023-08-12T02:40:37;8.88;;;5.87;;
60336;SDS011;46978;50.288;28.624;2023-08-12T02:41:42;7.87;;;5.87;;
60336;SDS011;46978;50.288;28.624;2023-08-12T02:42:47;7.48;;;5.87;;
60336;SDS011;46978;50.288;28.624;2023-08-12T02:43:54;8.77;;;6.08;;
60336;SDS011;46978;50.288;28.624;2023-08-12T02:45:05;7.72;;;5.86;;
60336;SDS011;46978;50.288;28.624;2023-08-12T02:46:15;8.18;;;5.69;;
60336;SDS011;46978;50.288;28.624;2023-08-12T02:47:20;8.13;;;5.69;;
60336;SDS011;46978;50.288;28.624;2023-08-12T02:48:24;7.12;;;5.61;;
60336;SDS011;46978;50.288;28.624;2023-08-12T02:49:29;7.72;;;5.71;;
60336;SDS011;46978;50.288;28.624;2023-08-12T02:50:33;7.74;;;5.84;;
60336;SDS011;46978;50.288;28.624;2023-08-12T02:51:37;7.49;;;6.02;;
60336;SDS011;46978;50.288;28.624;2023-08-12T02:52:40;8.80;;;5.96;;
60336;SDS011;46978;50.288;28.624;2023-08-12T02:53:48;8.30;;;5.68;;
60336;SDS011;46978;50.288;28.624;2023-08-12T02:54:52;8.47;;;5.95;;
60336;SDS011;46978;50.288;28.624;2023-08-12T02:55:54;8.60;;;5.90;;
60336;SDS011;46978;50.288;28.624;2023-08-12T02:56:57;9.03;;;5.90;;
60336;SDS011;46978;50.288;28.624;2023-08-12T02:58:09;7.82;;;6.07;;
60336;SDS011;46978;50.288;28.624;2023-08-12T02:59:14;8.71;;;6.14;;
60336;SDS011;46978;50.288;28.624;2023-08-12T03:00:18;8.30;;;5.83;;
60336;SDS011;46978;50.288;28.624;2023-08-12T03:01:28;9.59;;;5.77;;
60336;SDS011;46978;50.288;28.624;2023-08-12T03:02:32;8.10;;;5.96;;
60336;SDS011;46978;50.288;28.624;2023-08-12T03:03:36;6.99;;;5.37;;
60336;SDS011;46978;50.288;28.624;2023-08-12T03:04:42;8.49;;;6.03;;
60336;SDS011;46978;50.288;28.624;2023-08-12T03:05:52;8.71;;;6.04;;
60336;SDS011;46978;50.288;28.624;2023-08-12T03:06:58;7.54;;;5.84;;
60336;SDS011;46978;50.288;28.624;2023-08-12T03:08:03;7.51;;;5.60;;
60336;SDS011;46978;50.288;28.624;2023-08-12T03:09:05;8.15;;;5.74;;
60336;SDS011;46978;50.288;28.624;2023-08-12T03:10:09;7.92;;;5.97;;
60336;SDS011;46978;50.288;28.624;2023-08-12T03:11:14;7.17;;;5.94;;
60336;SDS011;46978;50.288;28.624;2023-08-12T03:12:17;8.42;;;5.42;;
60336;SDS011;46978;50.288;28.624;2023-08-12T03:13:26;7.03;;;5.29;;
60336;SDS011;46978;50.288;28.624;2023-08-12T03:14:28;9.82;;;5.72;;
60336;SDS011;46978;50.288;28.624;2023-08-12T03:15:33;6.74;;;5.42;;
60336;SDS011;46978;50.288;28.624;2023-08-12T03:16:37;7.34;;;5.97;;
60336;SDS011;46978;50.288;28.624;2023-08-12T03:17:42;8.83;;;6.20;;
60336;SDS011;46978;50.288;28.624;2023-08-12T03:18:48;7.54;;;5.81;;
60336;SDS011;46978;50.288;28.624;2023-08-12T03:19:56;8.93;;;6.13;;
60336;SDS011;46978;50.288;28.624;2023-08-12T03:21:04;7.24;;;5.46;;
60336;SDS011;46978;50.288;28.624;2023-08-12T03:22:14;7.91;;;5.73;;
60336;SDS011;46978;50.288;28.624;2023-08-12T03:23:18;7.96;;;5.69;;
60336;SDS011;46978;50.288;28.624;2023-08-12T03:24:21;6.69;;;5.38;;
60336;SDS011;46978;50.288;28.624;2023-08-12T03:25:27;6.81;;;5.56;;
60336;SDS011;46978;50.288;28.624;2023-08-12T03:26:32;8.30;;;5.83;;
60336;SDS011;46978;50.288;28.624;2023-08-12T03:27:34;7.26;;;5.28;;
60336;SDS011;46978;50.288;28.624;2023-08-12T03:28:38;7.82;;;5.23;;
60336;SDS011;46978;50.288;28.624;2023-08-12T03:29:41;8.23;;;5.86;;
60336;SDS011;46978;50.288;28.624;2023-08-12T03:30:51;6.26;;;5.09;;
60336;SDS011;46978;50.288;28.624;2023-08-12T03:31:56;7.93;;;5.98;;
60336;SDS011;46978;50.288;28.624;2023-08-12T03:32:58;8.73;;;5.95;;
60336;SDS011;46978;50.288;28.624;2023-08-12T03:34:05;7.07;;;5.29;;
60336;SDS011;46978;50.288;28.624;2023-08-12T03:35:10;7.01;;;5.30;;
60336;SDS011;46978;50.288;28.624;2023-08-12T03:36:17;7.38;;;5.41;;
60336;SDS011;46978;50.288;28.624;2023-08-12T03:37:18;6.91;;;5.42;;
60336;SDS011;46978;50.288;28.624;2023-08-12T03:38:25;8.05;;;5.41;;
60336;SDS011;46978;50.288;28.624;2023-08-12T03:39:28;8.53;;;5.61;;
60336;SDS011;46978;50.288;28.624;2023-08-12T03:40:32;8.89;;;5.49;;
60336;SDS011;46978;50.288;28.624;2023-08-12T03:41:37;7.19;;;5.04;;
60336;SDS011;46978;50.288;28.624;2023-08-12T03:42:40;7.44;;;5.41;;
60336;SDS011;46978;50.288;28.624;2023-08-12T03:43:56;8.91;;;5.26;;
60336;SDS011;46978;50.288;28.624;2023-08-12T03:45:01;8.04;;;5.40;;
60336;SDS011;46978;50.288;28.624;2023-08-12T03:46:11;8.02;;;4.66;;
60336;SDS011;46978;50.288;28.624;2023-08-12T03:47:20;6.69;;;4.74;;
60336;SDS011;46978;50.288;28.624;2023-08-12T03:48:27;7.24;;;4.53;;
60336;SDS011;46978;50.288;28.624;2023-08-12T03:49:32;6.88;;;4.93;;
60336;SDS011;46978;50.288;28.624;2023-08-12T03:50:38;8.25;;;4.87;;
60336;SDS011;46978;50.288;28.624;2023-08-12T03:51:44;6.93;;;4.72;;
60336;SDS011;46978;50.288;28.624;2023-08-12T03:52:49;6.18;;;4.48;;
60336;SDS011;46978;50.288;28.624;2023-08-12T03:53:54;6.23;;;4.18;;
60336;SDS011;46978;50.288;28.624;2023-08-12T03:55:01;6.30;;;4.62;;
60336;SDS011;46978;50.288;28.624;2023-08-12T03:56:11;5.83;;;4.29;;
60336;SDS011;46978;50.288;28.624;2023-08-12T03:57:19;6.55;;;4.29;;
60336;SDS011;46978;50.288;28.624;2023-08-12T03:58:21;6.28;;;4.23;;
60336;SDS011;46978;50.288;28.624;2023-08-12T03:59:23;6.77;;;4.36;;
60336;SDS011;46978;50.288;28.624;2023-08-12T04:00:28;5.50;;;3.98;;
60336;SDS011;46978;50.288;28.624;2023-08-12T04:01:32;5.56;;;4.00;;
60336;SDS011;46978;50.288;28.624;2023-08-12T04:02:35;5.92;;;4.02;;
60336;SDS011;46978;50.288;28.624;2023-08-12T04:03:39;6.99;;;3.91;;
60336;SDS011;46978;50.288;28.624;2023-08-12T04:04:42;6.26;;;3.89;;
60336;SDS011;46978;50.288;28.624;2023-08-12T04:05:48;5.64;;;3.98;;
60336;SDS011;46978;50.288;28.624;2023-08-12T04:06:54;6.76;;;4.04;;
60336;SDS011;46978;50.288;28.624;2023-08-12T04:08:02;6.00;;;3.85;;
60336;SDS011;46978;50.288;28.624;2023-08-12T04:09:07;6.64;;;3.86;;
60336;SDS011;46978;50.288;28.624;2023-08-12T04:10:10;7.79;;;3.88;;
60336;SDS011;46978;50.288;28.624;2023-08-12T04:11:12;4.71;;;3.52;;
60336;SDS011;46978;50.288;28.624;2023-08-12T04:12:16;5.40;;;3.60;;
60336;SDS011;46978;50.288;28.624;2023-08-12T04:13:17;5.48;;;3.70;;
60336;SDS011;46978;50.288;28.624;2023-08-12T04:14:22;5.99;;;3.95;;
60336;SDS011;46978;50.288;28.624;2023-08-12T04:15:24;7.54;;;3.68;;
60336;SDS011;46978;50.288;28.624;2023-08-12T04:16:29;5.96;;;3.56;;
60336;SDS011;46978;50.288;28.624;2023-08-12T04:17:34;6.23;;;3.56;;
60336;SDS011;46978;50.288;28.624;2023-08-12T04:18:37;6.68;;;3.59;;
60336;SDS011;46978;50.288;28.624;2023-08-12T04:19:39;5.83;;;3.77;;
60336;SDS011;46978;50.288;28.624;2023-08-12T04:20:48;5.33;;;3.34;;
60336;SDS011;46978;50.288;28.624;2023-08-12T04:21:54;5.79;;;3.40;;
60336;SDS011;46978;50.288;28.624;2023-08-12T04:23:05;6.00;;;3.78;;
60336;SDS011;46978;50.288;28.624;2023-08-12T04:24:07;4.93;;;3.52;;
60336;SDS011;46978;50.288;28.624;2023-08-12T04:25:10;5.64;;;3.79;;
60336;SDS011;46978;50.288;28.624;2023-08-12T04:26:18;5.83;;;3.99;;
60336;SDS011;46978;50.288;28.624;2023-08-12T04:27:22;5.52;;;3.45;;
60336;SDS011;46978;50.288;28.624;2023-08-12T04:28:24;6.21;;;3.71;;
60336;SDS011;46978;50.288;28.624;2023-08-12T04:29:28;6.42;;;4.03;;
60336;SDS011;46978;50.288;28.624;2023-08-12T04:30:32;6.55;;;3.37;;
60336;SDS011;46978;50.288;28.624;2023-08-12T04:31:37;5.08;;;3.48;;
60336;SDS011;46978;50.288;28.624;2023-08-12T04:32:41;5.42;;;3.74;;
60336;SDS011;46978;50.288;28.624;2023-08-12T04:33:43;5.55;;;3.63;;
60336;SDS011;46978;50.288;28.624;2023-08-12T04:34:49;5.31;;;3.52;;
60336;SDS011;46978;50.288;28.624;2023-08-12T04:35:52;5.74;;;3.19;;
60336;SDS011;46978;50.288;28.624;2023-08-12T04:36:57;5.60;;;3.54;;
60336;SDS011;46978;50.288;28.624;2023-08-12T04:38:02;6.10;;;3.93;;
60336;SDS011;46978;50.288;28.624;2023-08-12T04:39:09;5.44;;;3.50;;
60336;SDS011;46978;50.288;28.624;2023-08-12T04:40:17;4.82;;;3.21;;
60336;SDS011;46978;50.288;28.624;2023-08-12T04:41:20;4.70;;;3.48;;
60336;SDS011;46978;50.288;28.624;2023-08-12T04:42:25;5.44;;;3.53;;
60336;SDS011;46978;50.288;28.624;2023-08-12T04:43:29;5.26;;;3.32;;
60336;SDS011;46978;50.288;28.624;2023-08-12T04:44:33;5.94;;;3.39;;
60336;SDS011;46978;50.288;28.624;2023-08-12T04:45:37;6.08;;;3.42;;
60336;SDS011;46978;50.288;28.624;2023-08-12T04:46:47;5.68;;;3.67;;
60336;SDS011;46978;50.288;28.624;2023-08-12T04:47:53;6.00;;;3.66;;
60336;SDS011;46978;50.288;28.624;2023-08-12T04:48:58;5.68;;;3.68;;
60336;SDS011;46978;50.288;28.624;2023-08-12T04:50:00;6.46;;;3.67;;
60336;SDS011;46978;50.288;28.624;2023-08-12T04:51:04;5.66;;;3.84;;
60336;SDS011;46978;50.288;28.624;2023-08-12T04:52:06;6.98;;;3.71;;
60336;SDS011;46978;50.288;28.624;2023-08-12T04:53:10;5.15;;;3.35;;
60336;SDS011;46978;50.288;28.624;2023-08-12T04:54:12;5.98;;;3.66;;
60336;SDS011;46978;50.288;28.624;2023-08-12T04:55:13;5.35;;;3.36;;
60336;SDS011;46978;50.288;28.624;2023-08-12T04:56:16;5.48;;;3.59;;
60336;SDS011;46978;50.288;28.624;2023-08-12T04:57:21;5.76;;;3.52;;
60336;SDS011;46978;50.288;28.624;2023-08-12T04:58:28;5.07;;;3.23;;
60336;SDS011;46978;50.288;28.624;2023-08-12T04:59:32;5.70;;;3.29;;
60336;SDS011;46978;50.288;28.624;2023-08-12T05:00:37;6.00;;;3.45;;
60336;SDS011;46978;50.288;28.624;2023-08-12T05:01:39;6.00;;;3.44;;
60336;SDS011;46978;50.288;28.624;2023-08-12T05:02:42;8.69;;;3.78;;
60336;SDS011;46978;50.288;28.624;2023-08-12T05:03:44;5.54;;;3.59;;
60336;SDS011;46978;50.288;28.624;2023-08-12T05:04:49;6.95;;;3.48;;
60336;SDS011;46978;50.288;28.624;2023-08-12T05:05:53;5.04;;;3.57;;
60336;SDS011;46978;50.288;28.624;2023-08-12T05:06:55;4.67;;;3.22;;
60336;SDS011;46978;50.288;28.624;2023-08-12T05:08:02;6.82;;;3.92;;
60336;SDS011;46978;50.288;28.624;2023-08-12T05:09:04;5.74;;;3.92;;
60336;SDS011;46978;50.288;28.624;2023-08-12T05:10:06;6.35;;;3.39;;
60336;SDS011;46978;50.288;28.624;2023-08-12T05:11:13;5.09;;;3.66;;
60336;SDS011;46978;50.288;28.624;2023-08-12T05:12:17;5.76;;;3.47;;
60336;SDS011;46978;50.288;28.624;2023-08-12T05:13:20;5.06;;;3.34;;
60336;SDS011;46978;50.288;28.624;2023-08-12T05:14:23;5.95;;;3.60;;
60336;SDS011;46978;50.288;28.624;2023-08-12T05:15:26;5.84;;;3.78;;
60336;SDS011;46978;50.288;28.624;2023-08-12T05:16:37;5.53;;;3.67;;
60336;SDS011;46978;50.288;28.624;2023-08-12T05:17:39;5.64;;;3.39;;
60336;SDS011;46978;50.288;28.624;2023-08-12T05:18:44;6.84;;;3.58;;
60336;SDS011;46978;50.288;28.624;2023-08-12T05:19:45;5.41;;;3.50;;
60336;SDS011;46978;50.288;28.624;2023-08-12T05:20:51;8.48;;;3.72;;
60336;SDS011;46978;50.288;28.624;2023-08-12T05:21:55;7.52;;;3.72;;
60336;SDS011;46978;50.288;28.624;2023-08-12T05:23:00;5.07;;;3.58;;
60336;SDS011;46978;50.288;28.624;2023-08-12T05:24:01;6.30;;;3.71;;
60336;SDS011;46978;50.288;28.624;2023-08-12T05:25:07;8.19;;;4.07;;
60336;SDS011;46978;50.288;28.624;2023-08-12T05:26:15;6.23;;;3.63;;
60336;SDS011;46978;50.288;28.624;2023-08-12T05:27:18;7.24;;;3.81;;
60336;SDS011;46978;50.288;28.624;2023-08-12T05:28:25;5.44;;;3.69;;
60336;SDS011;46978;50.288;28.624;2023-08-12T05:29:28;4.93;;;3.73;;
60336;SDS011;46978;50.288;28.624;2023-08-12T05:30:30;6.13;;;3.77;;
60336;SDS011;46978;50.288;28.624;2023-08-12T05:31:37;5.30;;;3.33;;
60336;SDS011;46978;50.288;28.624;2023-08-12T05:32:42;4.77;;;3.75;;
60336;SDS011;46978;50.288;28.624;2023-08-12T05:33:46;5.65;;;3.62;;
60336;SDS011;46978;50.288;28.624;2023-08-12T05:34:49;6.74;;;3.69;;
60336;SDS011;46978;50.288;28.624;2023-08-12T05:35:54;4.80;;;3.41;;
60336;SDS011;46978;50.288;28.624;2023-08-12T05:37:00;5.99;;;3.93;;
60336;SDS011;46978;50.288;28.624;2023-08-12T05:38:03;5.53;;;3.43;;
60336;SDS011;46978;50.288;28.624;2023-08-12T05:39:06;5.59;;;3.81;;
60336;SDS011;46978;50.288;28.624;2023-08-12T05:40:13;4.98;;;3.69;;
60336;SDS011;46978;50.288;28.624;2023-08-12T05:41:17;10.36;;;3.61;;
60336;SDS011;46978;50.288;28.624;2023-08-12T05:42:20;4.94;;;3.69;;
60336;SDS011;46978;50.288;28.624;2023-08-12T05:43:26;5.30;;;3.65;;
60336;SDS011;46978;50.288;28.624;2023-08-12T05:44:28;5.89;;;3.67;;
60336;SDS011;46978;50.288;28.624;2023-08-12T05:45:32;5.59;;;3.59;;
60336;SDS011;46978;50.288;28.624;2023-08-12T05:46:34;6.70;;;3.61;;
60336;SDS011;46978;50.288;28.624;2023-08-12T05:47:39;5.36;;;3.27;;
60336;SDS011;46978;50.288;28.624;2023-08-12T05:48:41;5.60;;;3.77;;
60336;SDS011;46978;50.288;28.624;2023-08-12T05:49:44;5.14;;;3.51;;
60336;SDS011;46978;50.288;28.624;2023-08-12T05:50:47;4.92;;;3.31;;
60336;SDS011;46978;50.288;28.624;2023-08-12T05:51:48;5.73;;;3.60;;
60336;SDS011;46978;50.288;28.624;2023-08-12T05:52:50;5.06;;;3.30;;
60336;SDS011;46978;50.288;28.624;2023-08-12T05:53:52;4.63;;;3.40;;
60336;SDS011;46978;50.288;28.624;2023-08-12T05:54:55;7.48;;;3.91;;
60336;SDS011;46978;50.288;28.624;2023-08-12T05:55:57;6.06;;;3.92;;
60336;SDS011;46978;50.288;28.624;2023-08-12T05:57:00;6.01;;;3.58;;
60336;SDS011;46978;50.288;28.624;2023-08-12T05:58:02;9.31;;;3.73;;
60336;SDS011;46978;50.288;28.624;2023-08-12T05:59:05;5.38;;;3.27;;
60336;SDS011;46978;50.288;28.624;2023-08-12T06:00:08;6.58;;;3.60;;
60336;SDS011;46978;50.288;28.624;2023-08-12T06:01:11;5.00;;;3.18;;
60336;SDS011;46978;50.288;28.624;2023-08-12T06:02:17;5.48;;;3.42;;
60336;SDS011;46978;50.288;28.624;2023-08-12T06:03:18;5.05;;;3.25;;
60336;SDS011;46978;50.288;28.624;2023-08-12T06:04:20;9.93;;;3.29;;
60336;SDS011;46978;50.288;28.624;2023-08-12T06:05:32;4.31;;;3.16;;
60336;SDS011;46978;50.288;28.624;2023-08-12T06:06:38;6.22;;;3.57;;
60336;SDS011;46978;50.288;28.624;2023-08-12T06:07:39;6.33;;;3.51;;
60336;SDS011;46978;50.288;28.624;2023-08-12T06:08:41;6.36;;;3.31;;
60336;SDS011;46978;50.288;28.624;2023-08-12T06:09:43;5.34;;;3.47;;
60336;SDS011;46978;50.288;28.624;2023-08-12T06:10:46;6.28;;;3.08;;
60336;SDS011;46978;50.288;28.624;2023-08-12T06:11:51;6.69;;;3.27;;
60336;SDS011;46978;50.288;28.624;2023-08-12T06:12:56;6.03;;;3.26;;
60336;SDS011;46978;50.288;28.624;2023-08-12T06:14:00;5.21;;;3.42;;
60336;SDS011;46978;50.288;28.624;2023-08-12T06:15:01;8.42;;;3.59;;
60336;SDS011;46978;50.288;28.624;2023-08-12T06:16:06;8.88;;;3.78;;
60336;SDS011;46978;50.288;28.624;2023-08-12T06:17:08;5.76;;;3.11;;
60336;SDS011;46978;50.288;28.624;2023-08-12T06:18:14;4.61;;;3.35;;
60336;SDS011;46978;50.288;28.624;2023-08-12T06:19:19;4.54;;;3.22;;
60336;SDS011;46978;50.288;28.624;2023-08-12T06:20:23;4.81;;;3.22;;
60336;SDS011;46978;50.288;28.624;2023-08-12T06:21:26;5.97;;;3.27;;
60336;SDS011;46978;50.288;28.624;2023-08-12T06:22:28;14.53;;;3.78;;
60336;SDS011;46978;50.288;28.624;2023-08-12T06:23:30;5.86;;;3.59;;
60336;SDS011;46978;50.288;28.624;2023-08-12T06:24:35;6.47;;;3.45;;
60336;SDS011;46978;50.288;28.624;2023-08-12T06:25:37;5.45;;;3.38;;
60336;SDS011;46978;50.288;28.624;2023-08-12T06:26:42;10.65;;;3.31;;
60336;SDS011;46978;50.288;28.624;2023-08-12T06:27:47;5.46;;;3.21;;
60336;SDS011;46978;50.288;28.624;2023-08-12T06:28:51;5.15;;;3.46;;
60336;SDS011;46978;50.288;28.624;2023-08-12T06:29:56;4.94;;;3.26;;
60336;SDS011;46978;50.288;28.624;2023-08-12T06:30:59;4.67;;;3.27;;
60336;SDS011;46978;50.288;28.624;2023-08-12T06:32:01;4.81;;;3.38;;
60336;SDS011;46978;50.288;28.624;2023-08-12T06:33:03;4.57;;;3.39;;
60336;SDS011;46978;50.288;28.624;2023-08-12T06:34:04;5.48;;;3.03;;